Time;durP1;ratioP1;P1;durP2;ratioP2;P2;SDS_P1;SDS_P2;PMS_P1;PMS_P2;Temp;Humidity;BMP_temperature;BMP_pressure;BME280_temperature;BME280_humidity;BME280_pressure;Samples;Min_cycle;Max_cycle;Signal;HPM_P1;HPM_P2
2023/05/22 00:01:11;;;;;;;;;;;22.70;86.00;;;;;;5093738;28;19947;-58
2023/05/22 00:03:36;;;;;;;;;;;22.70;86.10;;;;;;5093709;28;19908;-57
2023/05/22 00:06:02;;;;;;;;;;;22.70;86.30;;;;;;5093944;28;20313;-56
2023/05/22 00:08:27;;;;;;;;;;;22.60;86.40;;;;;;5094009;28;19997;-55
2023/05/22 00:10:53;;;;;;;;;;;22.60;86.50;;;;;;5093670;28;19959;-57
2023/05/22 00:13:19;;;;;;;;;;;22.50;86.60;;;;;;5093656;28;19915;-56
2023/05/22 00:15:44;;;;;;;;;;;22.50;86.80;;;;;;5093598;28;19954;-56
2023/05/22 00:18:12;;;;;;;;;;;22.50;86.80;;;;;;5093836;28;19913;-57
2023/05/22 00:20:37;;;;;;;;;;;22.40;86.90;;;;;;5075736;28;19919;-58
2023/05/22 00:23:03;;;;;;;;;;;22.40;87.10;;;;;;5075741;28;19924;-58
2023/05/22 00:25:29;;;;;;;;;;;22.40;87.10;;;;;;5093972;28;20351;-56
2023/05/22 00:27:54;;;;;;;;;;;22.30;87.10;;;;;;5094148;28;20266;-55
2023/05/22 00:30:20;;;;;;;;;;;22.30;87.10;;;;;;5093773;28;19909;-58
2023/05/22 00:32:45;;;;;;;;;;;22.30;87.20;;;;;;5093748;28;20427;-57
2023/05/22 00:35:11;;;;;;;;;;;22.30;87.20;;;;;;5093789;28;20313;-58
2023/05/22 00:37:36;;;;;;;;;;;22.20;87.20;;;;;;5093826;28;19935;-57
2023/05/22 00:40:02;;;;;;;;;;;22.20;87.30;;;;;;5075591;28;19955;-59
2023/05/22 00:42:28;;;;;;;;;;;22.20;87.20;;;;;;5075940;28;19909;-59
2023/05/22 00:44:53;;;;;;;;;;;22.30;87.30;;;;;;5094063;28;19931;-58
2023/05/22 00:47:20;;;;;;;;;;;22.30;87.20;;;;;;5094042;28;19912;-52
2023/05/22 00:49:45;;;;;;;;;;;22.30;87.20;;;;;;5096956;28;20333;-58
2023/05/22 00:52:11;;;;;;;;;;;22.30;87.10;;;;;;5097280;28;19908;-57
2023/05/22 00:54:37;;;;;;;;;;;22.40;87.10;;;;;;5097114;28;19947;-57
2023/05/22 00:57:03;;;;;;;;;;;22.50;87.00;;;;;;5096737;28;20371;-58
2023/05/22 00:59:30;;;;;;;;;;;22.50;86.90;;;;;;5097064;28;19912;-55
2023/05/22 01:01:56;;;;;;;;;;;22.60;86.90;;;;;;5097006;28;19951;-58
2023/05/22 01:04:21;;;;;;;;;;;22.60;86.90;;;;;;5096933;28;19908;-57
2023/05/22 01:06:47;;;;;;;;;;;22.60;86.90;;;;;;5078761;28;19957;-58
2023/05/22 01:09:13;;;;;;;;;;;22.60;87.00;;;;;;5096880;28;19985;-59
2023/05/22 01:11:44;;;;;;;;;;;22.60;87.00;;;;;;5096517;28;20308;-57
2023/05/22 01:14:28;;;;;;;;;;;22.60;87.10;;;;;;5096841;28;19908;-58
2023/05/22 01:16:53;;;;;;;;;;;22.50;87.10;;;;;;5096873;28;19969;-58
2023/05/22 01:19:38;;;;;;;;;;;22.50;87.10;;;;;;5096392;28;19916;-58
2023/05/22 01:22:20;;;;;;;;;;;22.50;87.10;;;;;;5096626;28;19926;-58
2023/05/22 01:24:50;;;;;;;;;;;22.40;87.10;;;;;;5096573;28;20369;-56
2023/05/22 01:27:27;;;;;;;;;;;22.40;87.10;;;;;;5096283;28;19912;-56
2023/05/22 01:30:04;;;;;;;;;;;22.40;87.20;;;;;;5096211;28;19908;-58
2023/05/22 01:32:31;;;;;;;;;;;22.30;87.10;;;;;;5078350;28;19912;-57
2023/05/22 01:34:59;;;;;;;;;;;22.30;87.20;;;;;;5096135;28;19991;-57
2023/05/22 01:37:26;;;;;;;;;;;22.30;87.30;;;;;;5096294;28;19912;-55
2023/05/22 01:39:52;;;;;;;;;;;22.30;87.20;;;;;;5096663;28;19912;-57
2023/05/22 01:42:18;;;;;;;;;;;22.30;87.30;;;;;;5096282;28;20307;-55
2023/05/22 01:44:43;;;;;;;;;;;22.30;87.30;;;;;;5095778;28;19924;-58
2023/05/22 01:47:09;;;;;;;;;;;22.30;87.40;;;;;;5095856;28;20053;-58
2023/05/22 01:49:35;;;;;;;;;;;22.30;87.30;;;;;;5096073;28;19908;-56
2023/05/22 01:52:04;;;;;;;;;;;22.30;87.40;;;;;;5078008;28;19908;-59
2023/05/22 01:54:37;;;;;;;;;;;22.30;87.40;;;;;;5096166;28;19909;-58
2023/05/22 01:57:11;;;;;;;;;;;22.40;87.40;;;;;;5096002;28;19919;-59
2023/05/22 01:59:42;;;;;;;;;;;22.40;87.40;;;;;;5094620;28;19912;-58
2023/05/22 02:02:09;;;;;;;;;;;22.40;87.30;;;;;;5077906;28;20244;-58
2023/05/22 02:04:38;;;;;;;;;;;22.50;87.30;;;;;;5095910;28;20421;-57
2023/05/22 02:07:05;;;;;;;;;;;22.50;87.30;;;;;;5095846;28;20357;-58
2023/05/22 02:09:30;;;;;;;;;;;22.50;87.20;;;;;;5095838;28;19953;-58
2023/05/22 02:11:59;;;;;;;;;;;22.50;87.30;;;;;;5077647;28;19912;-58
2023/05/22 02:14:25;;;;;;;;;;;22.50;87.30;;;;;;5095624;28;19917;-58
2023/05/22 02:16:51;;;;;;;;;;;22.40;87.30;;;;;;5095870;28;19912;-57
2023/05/22 02:19:17;;;;;;;;;;;22.40;87.40;;;;;;5095914;28;19912;-59
2023/05/22 02:21:42;;;;;;;;;;;22.40;87.60;;;;;;5095254;28;19908;-57
2023/05/22 02:24:08;;;;;;;;;;;22.40;87.50;;;;;;5095305;28;20363;-57
2023/05/22 02:26:34;;;;;;;;;;;22.40;87.50;;;;;;5095274;28;19916;-58
2023/05/22 02:28:59;;;;;;;;;;;22.40;87.60;;;;;;5095149;28;20347;-58
2023/05/22 02:31:25;;;;;;;;;;;22.40;87.60;;;;;;5095370;28;19908;-57
2023/05/22 02:33:50;;;;;;;;;;;22.30;87.50;;;;;;5077132;28;19915;-57
2023/05/22 02:36:16;;;;;;;;;;;22.30;87.50;;;;;;5095271;28;20004;-58
2023/05/22 02:38:41;;;;;;;;;;;22.30;87.60;;;;;;5095159;28;19912;-58
2023/05/22 02:41:07;;;;;;;;;;;22.30;87.50;;;;;;5095194;28;19912;-58
2023/05/22 02:43:32;;;;;;;;;;;22.30;87.60;;;;;;5094929;28;19920;-57
2023/05/22 02:45:58;;;;;;;;;;;22.30;87.50;;;;;;5094780;28;19909;-57
2023/05/22 02:48:23;;;;;;;;;;;22.40;87.50;;;;;;5095015;28;19965;-57
2023/05/22 02:50:49;;;;;;;;;;;22.40;87.30;;;;;;5076889;28;19951;-58
2023/05/22 02:53:15;;;;;;;;;;;22.50;87.30;;;;;;5094960;28;19933;-57
2023/05/22 02:55:41;;;;;;;;;;;22.50;87.20;;;;;;5094590;28;19992;-56
2023/05/22 02:58:10;;;;;;;;;;;22.50;87.10;;;;;;5094784;28;19973;-56
2023/05/22 03:00:38;;;;;;;;;;;22.60;87.00;;;;;;5076633;28;20359;-58
2023/05/22 03:03:04;;;;;;;;;;;22.60;86.90;;;;;;5094493;28;20374;-58
2023/05/22 03:05:30;;;;;;;;;;;22.60;86.90;;;;;;5094738;28;19915;-58
2023/05/22 03:07:56;;;;;;;;;;;22.60;86.90;;;;;;5094720;28;19962;-57
2023/05/22 03:10:22;;;;;;;;;;;22.60;87.00;;;;;;5094296;28;19912;-58
2023/05/22 03:12:47;;;;;;;;;;;22.60;87.00;;;;;;5094593;28;19915;-58
2023/05/22 03:15:13;;;;;;;;;;;22.60;87.10;;;;;;5094255;28;20365;-58
2023/05/22 03:17:38;;;;;;;;;;;22.60;87.20;;;;;;5094708;28;19947;-58
2023/05/22 03:20:05;;;;;;;;;;;22.50;87.30;;;;;;5094639;28;20418;-57
2023/05/22 03:22:31;;;;;;;;;;;22.50;87.30;;;;;;5094203;28;19966;-58
2023/05/22 03:24:56;;;;;;;;;;;22.50;87.30;;;;;;5094212;28;19908;-58
2023/05/22 03:27:22;;;;;;;;;;;22.40;87.40;;;;;;5094129;28;19999;-58
2023/05/22 03:29:47;;;;;;;;;;;22.40;87.40;;;;;;5094379;28;19916;-58
2023/05/22 03:32:13;;;;;;;;;;;22.40;87.60;;;;;;5094343;28;20378;-57
2023/05/22 03:34:38;;;;;;;;;;;22.40;87.60;;;;;;5094153;28;19908;-57
2023/05/22 03:37:03;;;;;;;;;;;22.30;87.60;;;;;;5094171;28;19968;-57
2023/05/22 03:39:29;;;;;;;;;;;22.30;87.80;;;;;;5093959;28;20472;-58
2023/05/22 03:41:54;;;;;;;;;;;22.30;87.80;;;;;;5076406;28;19915;-58
2023/05/22 03:44:20;;;;;;;;;;;22.30;87.90;;;;;;5075803;28;19927;-57
2023/05/22 03:46:45;;;;;;;;;;;22.30;87.90;;;;;;5093914;28;19908;-57
2023/05/22 03:49:11;;;;;;;;;;;22.30;87.90;;;;;;5093833;28;19915;-58
2023/05/22 03:51:36;;;;;;;;;;;22.30;87.90;;;;;;5093926;28;19908;-58
2023/05/22 03:54:02;;;;;;;;;;;22.30;87.90;;;;;;5094614;28;20339;-58
2023/05/22 03:56:27;;;;;;;;;;;22.30;87.90;;;;;;5093707;28;20339;-57
2023/05/22 03:58:53;;;;;;;;;;;22.40;87.80;;;;;;5075674;28;19916;-58
2023/05/22 04:01:18;;;;;;;;;;;22.60;87.70;;;;;;5094422;28;19912;-57
2023/05/22 04:03:44;;;;;;;;;;;22.60;87.50;;;;;;5094104;28;20011;-58
2023/05/22 04:06:09;;;;;;;;;;;22.70;87.30;;;;;;5093989;28;19908;-58
2023/05/22 04:08:35;;;;;;;;;;;22.80;87.20;;;;;;5075900;28;19915;-58
2023/05/22 04:11:01;;;;;;;;;;;22.80;87.10;;;;;;5094050;28;19966;-56
2023/05/22 04:13:27;;;;;;;;;;;22.80;87.00;;;;;;5093620;28;19908;-58
2023/05/22 04:15:53;;;;;;;;;;;22.80;87.10;;;;;;5075866;28;20370;-58
2023/05/22 04:18:18;;;;;;;;;;;22.70;87.10;;;;;;5075744;28;20352;-58
2023/05/22 04:20:44;;;;;;;;;;;22.70;87.10;;;;;;5093892;28;20438;-56
2023/05/22 04:23:10;;;;;;;;;;;22.70;87.20;;;;;;5095458;28;19999;-58
2023/05/22 04:25:35;;;;;;;;;;;22.70;87.20;;;;;;5097460;28;19935;-57
2023/05/22 04:28:02;;;;;;;;;;;22.70;87.30;;;;;;5097503;28;20278;-55
2023/05/22 04:30:29;;;;;;;;;;;22.60;87.30;;;;;;5097362;28;20359;-58
2023/05/22 04:32:56;;;;;;;;;;;22.60;87.30;;;;;;5097194;28;19914;-56
2023/05/22 04:35:21;;;;;;;;;;;22.60;87.40;;;;;;5097091;28;20248;-57
2023/05/22 04:37:47;;;;;;;;;;;22.60;87.60;;;;;;5096942;28;20015;-58
2023/05/22 04:40:14;;;;;;;;;;;22.50;87.50;;;;;;5097163;28;19919;-58
2023/05/22 04:42:39;;;;;;;;;;;22.50;87.60;;;;;;5096829;28;19915;-54
2023/05/22 04:45:05;;;;;;;;;;;22.50;87.60;;;;;;5097840;28;19908;-58
2023/05/22 04:47:30;;;;;;;;;;;22.40;87.60;;;;;;5097300;28;19908;-58
2023/05/22 04:49:58;;;;;;;;;;;22.40;87.70;;;;;;5096570;28;20687;-57
2023/05/22 04:52:27;;;;;;;;;;;22.40;87.70;;;;;;5097118;28;19965;-56
2023/05/22 04:54:53;;;;;;;;;;;22.40;87.80;;;;;;5097153;28;19908;-57
2023/05/22 04:57:20;;;;;;;;;;;22.40;87.80;;;;;;5097016;28;19912;-57
2023/05/22 04:59:46;;;;;;;;;;;22.40;87.70;;;;;;5096930;28;19923;-56
2023/05/22 05:02:12;;;;;;;;;;;22.40;87.80;;;;;;5096898;28;19954;-58
2023/05/22 05:04:38;;;;;;;;;;;22.40;88.30;;;;;;5096847;28;19908;-58
2023/05/22 05:07:04;;;;;;;;;;;22.40;87.70;;;;;;5096756;28;19919;-58
2023/05/22 05:09:30;;;;;;;;;;;22.50;87.80;;;;;;5096351;28;20389;-55
2023/05/22 05:11:55;;;;;;;;;;;22.50;87.70;;;;;;5096773;28;20007;-58
2023/05/22 05:14:21;;;;;;;;;;;22.60;87.70;;;;;;5096618;28;19908;-58
2023/05/22 05:16:46;;;;;;;;;;;22.60;87.60;;;;;;5096523;28;20270;-58
2023/05/22 05:19:12;;;;;;;;;;;22.70;87.50;;;;;;5078394;28;19920;-57
2023/05/22 05:21:38;;;;;;;;;;;22.70;87.40;;;;;;5096382;28;19912;-58
2023/05/22 05:24:04;;;;;;;;;;;22.70;87.40;;;;;;5078254;28;19912;-55
2023/05/22 05:26:29;;;;;;;;;;;22.70;87.30;;;;;;5096025;28;19914;-57
2023/05/22 05:28:55;;;;;;;;;;;22.70;87.30;;;;;;5094603;28;20002;-57
2023/05/22 05:31:21;;;;;;;;;;;22.70;87.40;;;;;;5096030;28;20271;-58
2023/05/22 05:33:47;;;;;;;;;;;22.70;87.40;;;;;;5096059;28;20334;-58
2023/05/22 05:36:13;;;;;;;;;;;22.70;87.30;;;;;;5096024;28;19951;-58
2023/05/22 05:38:39;;;;;;;;;;;22.60;87.40;;;;;;5095969;28;19951;-57
2023/05/22 05:41:04;;;;;;;;;;;22.60;87.40;;;;;;5095792;28;20355;-58
2023/05/22 05:43:30;;;;;;;;;;;22.60;87.40;;;;;;5093343;28;19926;-58
2023/05/22 05:45:56;;;;;;;;;;;22.60;87.40;;;;;;5095327;28;19916;-58
2023/05/22 05:48:21;;;;;;;;;;;22.50;87.70;;;;;;5095479;28;20347;-58
2023/05/22 05:50:47;;;;;;;;;;;22.50;88.00;;;;;;5107156;28;19927;-57
2023/05/22 05:53:12;;;;;;;;;;;22.50;87.50;;;;;;5102093;28;19934;-56
2023/05/22 05:55:38;;;;;;;;;;;22.50;87.60;;;;;;5077599;28;19920;-57
2023/05/22 05:58:03;;;;;;;;;;;22.50;87.70;;;;;;5095299;28;19960;-57
2023/05/22 06:00:28;;;;;;;;;;;22.50;87.90;;;;;;5095209;28;20355;-56
2023/05/22 06:02:54;;;;;;;;;;;22.40;88.00;;;;;;5099513;28;19912;-57
2023/05/22 06:05:20;;;;;;;;;;;22.40;88.10;;;;;;5116249;28;19907;-55
2023/05/22 06:07:47;;;;;;;;;;;22.40;88.60;;;;;;5107866;28;19916;-56
2023/05/22 06:10:12;;;;;;;;;;;22.40;88.70;;;;;;5108544;28;19912;-59
2023/05/22 06:12:38;;;;;;;;;;;22.30;85.20;;;;;;5102201;28;19912;-57
2023/05/22 06:15:04;;;;;;;;;;;22.20;85.70;;;;;;5094514;28;20367;-57
2023/05/22 06:17:30;;;;;;;;;;;22.20;86.70;;;;;;5058457;28;20229;-56
2023/05/22 06:19:56;;;;;;;;;;;22.20;87.50;;;;;;5078183;28;19933;-49
2023/05/22 06:22:24;;;;;;;;;;;22.20;88.30;;;;;;5095685;28;20013;-60
2023/05/22 06:24:53;;;;;;;;;;;22.20;89.00;;;;;;5083542;28;20347;-61
2023/05/22 06:27:21;;;;;;;;;;;22.20;88.90;;;;;;5115263;28;19957;-59
2023/05/22 06:29:47;;;;;;;;;;;22.20;89.40;;;;;;5108918;28;19953;-62
2023/05/22 06:32:12;;;;;;;;;;;22.20;89.40;;;;;;5095296;28;19998;-56
2023/05/22 06:34:39;;;;;;;;;;;22.20;89.40;;;;;;5093546;28;19923;-62
2023/05/22 06:37:04;;;;;;;;;;;22.20;89.40;;;;;;5094987;28;19920;-58
2023/05/22 06:39:30;;;;;;;;;;;22.20;89.40;;;;;;5083140;28;19919;-60
2023/05/22 06:41:55;;;;;;;;;;;22.20;89.50;;;;;;5108736;28;19918;-57
2023/05/22 06:44:21;;;;;;;;;;;22.20;89.50;;;;;;5094876;28;20381;-57
2023/05/22 06:46:46;;;;;;;;;;;22.20;89.50;;;;;;5098026;28;19934;-56
2023/05/22 06:49:12;;;;;;;;;;;22.20;89.60;;;;;;5093674;28;19966;-59
2023/05/22 06:51:37;;;;;;;;;;;22.20;89.70;;;;;;5094828;28;19915;-58
2023/05/22 06:54:05;;;;;;;;;;;22.20;89.80;;;;;;5093904;28;20321;-58
2023/05/22 06:56:31;;;;;;;;;;;22.10;89.90;;;;;;5113568;28;19912;-60
2023/05/22 06:58:57;;;;;;;;;;;22.10;89.90;;;;;;5094726;28;19916;-60
2023/05/22 07:01:23;;;;;;;;;;;22.10;90.00;;;;;;5099150;28;19998;-55
2023/05/22 07:03:48;;;;;;;;;;;22.20;90.00;;;;;;5114521;28;20003;-61
2023/05/22 07:06:14;;;;;;;;;;;22.10;90.00;;;;;;5092316;28;19916;-60
2023/05/22 07:08:39;;;;;;;;;;;22.10;90.00;;;;;;5090742;28;19912;-60
2023/05/22 07:11:06;;;;;;;;;;;22.10;90.00;;;;;;5104128;28;19919;-62
2023/05/22 07:13:31;;;;;;;;;;;22.10;90.10;;;;;;5097082;28;20351;-60
2023/05/22 07:15:57;;;;;;;;;;;22.10;90.10;;;;;;5094249;28;19908;-62
2023/05/22 07:18:22;;;;;;;;;;;22.10;90.10;;;;;;5100008;28;20338;-61
2023/05/22 07:20:48;;;;;;;;;;;22.10;90.10;;;;;;5110670;28;20119;-60
2023/05/22 07:23:13;;;;;;;;;;;22.10;90.10;;;;;;5114291;28;19919;-62
2023/05/22 07:25:39;;;;;;;;;;;22.10;90.10;;;;;;5114167;28;19907;-63
2023/05/22 07:28:07;;;;;;;;;;;22.10;90.10;;;;;;5109222;28;19947;-62
2023/05/22 07:30:36;;;;;;;;;;;22.10;90.20;;;;;;5112367;28;20392;-60
2023/05/22 07:33:02;;;;;;;;;;;22.10;90.20;;;;;;5080833;28;19965;-61
2023/05/22 07:35:27;;;;;;;;;;;22.10;90.20;;;;;;5092759;28;19955;-62
2023/05/22 07:37:52;;;;;;;;;;;22.10;90.30;;;;;;5098599;28;20014;-62
2023/05/22 07:40:18;;;;;;;;;;;22.10;90.20;;;;;;5112972;28;19916;-63
2023/05/22 07:42:43;;;;;;;;;;;22.10;90.20;;;;;;5103793;28;19920;-59
2023/05/22 07:45:09;;;;;;;;;;;22.10;90.20;;;;;;5092400;28;19974;-60
2023/05/22 07:47:34;;;;;;;;;;;22.10;90.20;;;;;;5098950;28;19919;-60
2023/05/22 07:50:03;;;;;;;;;;;22.10;90.30;;;;;;5113449;28;19912;-62
2023/05/22 07:52:28;;;;;;;;;;;22.10;90.40;;;;;;5097682;28;19916;-62
2023/05/22 07:54:54;;;;;;;;;;;22.10;90.30;;;;;;5092649;28;19916;-62
2023/05/22 07:57:20;;;;;;;;;;;22.10;90.30;;;;;;5093305;28;19917;-63
2023/05/22 07:59:46;;;;;;;;;;;22.10;90.30;;;;;;5095745;28;19924;-62
2023/05/22 08:02:12;;;;;;;;;;;22.10;90.30;;;;;;5079687;28;20389;-64
2023/05/22 08:04:38;;;;;;;;;;;22.10;90.30;;;;;;5118585;28;19912;-62
2023/05/22 08:07:04;;;;;;;;;;;22.10;90.30;;;;;;5112733;28;20327;-62
2023/05/22 08:09:29;;;;;;;;;;;22.10;90.40;;;;;;5096622;28;19919;-60
2023/05/22 08:11:55;;;;;;;;;;;22.10;90.40;;;;;;5096414;28;19912;-62
2023/05/22 08:14:20;;;;;;;;;;;22.10;90.40;;;;;;5110390;28;19911;-58
2023/05/22 08:16:46;;;;;;;;;;;22.10;90.40;;;;;;5095720;28;19912;-60
2023/05/22 08:19:11;;;;;;;;;;;22.10;90.50;;;;;;5108224;28;20003;-61
2023/05/22 08:21:37;;;;;;;;;;;22.10;90.50;;;;;;5097633;28;19915;-62
2023/05/22 08:24:02;;;;;;;;;;;22.10;90.50;;;;;;5097443;28;19915;-62
2023/05/22 08:26:28;;;;;;;;;;;22.10;90.50;;;;;;5101604;28;20367;-61
2023/05/22 08:28:53;;;;;;;;;;;22.10;90.50;;;;;;5098348;28;20428;-61
2023/05/22 08:31:19;;;;;;;;;;;22.10;90.50;;;;;;5117664;28;19999;-62
2023/05/22 08:33:45;;;;;;;;;;;22.10;90.60;;;;;;5103043;28;19919;-62
2023/05/22 08:36:11;;;;;;;;;;;22.10;90.60;;;;;;5095723;28;20390;-59
2023/05/22 08:38:37;;;;;;;;;;;22.10;90.60;;;;;;5099741;28;19916;-58
2023/05/22 08:41:03;;;;;;;;;;;22.10;90.60;;;;;;5097080;28;19966;-62
2023/05/22 08:43:29;;;;;;;;;;;22.10;90.60;;;;;;5097083;28;19920;-66
2023/05/22 08:45:58;;;;;;;;;;;22.10;90.60;;;;;;5095721;28;19946;-65
2023/05/22 08:48:26;;;;;;;;;;;22.10;90.60;;;;;;5096046;28;19908;-62
2023/05/22 08:50:58;;;;;;;;;;;22.10;90.60;;;;;;5116069;28;19912;-64
2023/05/22 08:53:26;;;;;;;;;;;22.10;90.70;;;;;;5097377;28;19993;-73
2023/05/22 08:55:52;;;;;;;;;;;22.10;90.70;;;;;;5100845;28;19935;-69
2023/05/22 08:58:18;;;;;;;;;;;22.10;90.70;;;;;;5078851;28;20355;-65
2023/05/22 09:00:43;;;;;;;;;;;22.10;90.70;;;;;;5095613;28;20398;-63
2023/05/22 09:03:12;;;;;;;;;;;22.10;90.80;;;;;;5097281;28;19912;-63
2023/05/22 09:05:39;;;;;;;;;;;22.10;90.80;;;;;;5116343;28;19953;-66
2023/05/22 09:08:06;;;;;;;;;;;22.10;90.80;;;;;;5113122;28;19970;-65
2023/05/22 09:10:35;;;;;;;;;;;22.10;90.80;;;;;;5102802;28;19912;-62
2023/05/22 09:13:02;;;;;;;;;;;22.10;90.80;;;;;;5098201;28;19919;-65
2023/05/22 09:15:29;;;;;;;;;;;22.10;90.80;;;;;;5114607;28;19918;-63
2023/05/22 09:17:54;;;;;;;;;;;22.10;90.80;;;;;;5104772;28;19920;-70
2023/05/22 09:20:20;;;;;;;;;;;22.10;90.80;;;;;;5095203;28;19916;-68
2023/05/22 09:22:45;;;;;;;;;;;22.10;90.80;;;;;;5094196;28;20003;-67
2023/05/22 09:25:16;;;;;;;;;;;22.10;90.90;;;;;;5095633;28;19912;-61
2023/05/22 09:27:43;;;;;;;;;;;22.10;90.90;;;;;;5109804;28;19954;-64
2023/05/22 09:30:09;;;;;;;;;;;22.10;90.90;;;;;;5109399;28;20377;-66
2023/05/22 09:32:35;;;;;;;;;;;22.10;90.90;;;;;;5107563;28;19912;-66
2023/05/22 09:35:01;;;;;;;;;;;22.10;90.90;;;;;;5115411;28;19954;-64
2023/05/22 09:37:27;;;;;;;;;;;22.10;90.90;;;;;;5102443;28;20014;-65
2023/05/22 09:39:53;;;;;;;;;;;22.10;90.90;;;;;;5076529;28;20224;-66
2023/05/22 09:42:19;;;;;;;;;;;22.10;90.10;;;;;;5096286;28;20066;-65
2023/05/22 09:44:48;;;;;;;;;;;22.00;87.70;;;;;;5094295;28;20382;-66
2023/05/22 09:47:14;;;;;;;;;;;22.00;87.30;;;;;;5116596;28;19907;-65
2023/05/22 09:49:41;;;;;;;;;;;21.90;87.20;;;;;;5099954;28;20375;-63
2023/05/22 09:52:07;;;;;;;;;;;21.90;88.10;;;;;;5077859;28;19947;-66
2023/05/22 09:54:33;;;;;;;;;;;21.90;89.30;;;;;;5094716;28;20469;-64
2023/05/22 09:56:59;;;;;;;;;;;21.90;90.10;;;;;;5077518;28;19915;-66
2023/05/22 09:59:26;;;;;;;;;;;21.90;90.20;;;;;;5095949;28;19912;-66
2023/05/22 10:01:52;;;;;;;;;;;21.90;90.20;;;;;;5098089;28;19912;-65
2023/05/22 10:04:20;;;;;;;;;;;21.90;90.30;;;;;;5095801;28;19966;-64
2023/05/22 10:06:48;;;;;;;;;;;21.90;90.30;;;;;;5108156;28;19912;-64
2023/05/22 10:09:15;;;;;;;;;;;22.00;90.40;;;;;;5095480;28;19912;-64
2023/05/22 10:11:41;;;;;;;;;;;22.00;90.40;;;;;;5060880;28;19915;-65
2023/05/22 10:14:07;;;;;;;;;;;22.00;90.40;;;;;;5102872;28;19911;-66
2023/05/22 10:16:36;;;;;;;;;;;22.00;90.40;;;;;;5100552;28;19912;-65
2023/05/22 10:19:02;;;;;;;;;;;22.00;90.40;;;;;;5093762;28;20413;-66
2023/05/22 10:21:28;;;;;;;;;;;22.00;90.70;;;;;;5091123;28;19921;-74
2023/05/22 10:23:54;;;;;;;;;;;22.00;90.50;;;;;;5086785;28;19969;-68
2023/05/22 10:26:20;;;;;;;;;;;22.00;90.50;;;;;;5097828;28;20006;-71
2023/05/22 10:28:51;;;;;;;;;;;22.00;90.60;;;;;;5077120;28;19912;-62
2023/05/22 10:31:28;;;;;;;;;;;22.00;90.50;;;;;;5115446;28;19912;-66
2023/05/22 10:34:01;;;;;;;;;;;22.00;90.50;;;;;;5095469;28;20003;-67
2023/05/22 10:36:45;;;;;;;;;;;22.00;90.60;;;;;;5094401;28;20017;-69
2023/05/22 10:39:33;;;;;;;;;;;22.10;90.60;;;;;;5074326;28;19912;-66
2023/05/22 10:41:59;;;;;;;;;;;22.00;90.60;;;;;;5094630;28;19916;-67
2023/05/22 10:44:24;;;;;;;;;;;22.10;90.70;;;;;;5115368;28;20282;-67
2023/05/22 10:46:50;;;;;;;;;;;22.00;90.70;;;;;;5099785;28;19965;-69
2023/05/22 10:49:22;;;;;;;;;;;22.10;90.70;;;;;;5081422;28;19963;-63
2023/05/22 10:51:48;;;;;;;;;;;22.00;90.70;;;;;;5093875;28;20316;-62
2023/05/22 10:54:13;;;;;;;;;;;22.00;90.70;;;;;;5092996;28;19927;-63
2023/05/22 10:56:39;;;;;;;;;;;22.10;90.80;;;;;;5094650;28;20319;-64
2023/05/22 10:59:06;;;;;;;;;;;22.10;90.80;;;;;;5093286;28;20370;-67
2023/05/22 11:01:36;;;;;;;;;;;22.10;90.80;;;;;;5095723;28;19937;-66
2023/05/22 11:04:07;;;;;;;;;;;22.10;90.80;;;;;;5095669;28;19912;-66
2023/05/22 11:06:44;;;;;;;;;;;22.10;90.80;;;;;;5093297;28;19957;-66
2023/05/22 11:09:28;;;;;;;;;;;22.10;90.80;;;;;;5094518;28;20270;-67
2023/05/22 11:12:12;;;;;;;;;;;22.00;90.80;;;;;;5088300;28;19912;-68
2023/05/22 11:14:38;;;;;;;;;;;22.10;90.90;;;;;;5094408;28;19994;-65
2023/05/22 11:17:07;;;;;;;;;;;22.10;90.90;;;;;;5094409;28;20160;-66
2023/05/22 11:19:32;;;;;;;;;;;22.10;90.90;;;;;;5076141;28;20295;-66
2023/05/22 11:22:02;;;;;;;;;;;22.10;90.90;;;;;;5093200;28;19918;-67
2023/05/22 11:24:31;;;;;;;;;;;22.10;90.90;;;;;;5114119;28;19919;-65
2023/05/22 11:27:01;;;;;;;;;;;22.10;90.90;;;;;;5114832;28;19908;-62
2023/05/22 11:29:28;;;;;;;;;;;22.10;90.90;;;;;;5112299;28;19981;-65
2023/05/22 11:31:53;;;;;;;;;;;22.10;90.90;;;;;;5094456;28;19919;-65
2023/05/22 11:34:19;;;;;;;;;;;22.10;90.90;;;;;;5082265;28;19912;-64
2023/05/22 11:36:45;;;;;;;;;;;22.10;89.50;;;;;;5095190;28;19919;-66
2023/05/22 11:39:13;;;;;;;;;;;22.00;89.10;;;;;;5094136;28;19956;-65
2023/05/22 11:41:38;;;;;;;;;;;22.00;90.00;;;;;;5094141;28;19912;-65
2023/05/22 11:44:06;;;;;;;;;;;22.00;90.40;;;;;;5095120;28;19920;-65
2023/05/22 11:46:32;;;;;;;;;;;22.00;90.60;;;;;;5113932;28;20002;-62
2023/05/22 11:48:57;;;;;;;;;;;22.00;90.60;;;;;;5102136;28;19908;-62
2023/05/22 11:51:23;;;;;;;;;;;22.00;90.70;;;;;;5097131;28;20247;-62
2023/05/22 11:53:48;;;;;;;;;;;22.00;90.70;;;;;;5099247;28;19912;-62
2023/05/22 11:56:14;;;;;;;;;;;22.00;90.70;;;;;;5094003;28;19916;-62
2023/05/22 11:58:39;;;;;;;;;;;22.00;90.70;;;;;;5099111;28;20346;-63
2023/05/22 12:01:05;;;;;;;;;;;22.00;90.70;;;;;;5105771;28;19924;-63
2023/05/22 12:03:31;;;;;;;;;;;22.00;90.70;;;;;;5095869;28;19951;-61
2023/05/22 12:05:56;;;;;;;;;;;22.00;90.70;;;;;;5096505;28;19936;-63
2023/05/22 12:08:22;;;;;;;;;;;22.00;90.70;;;;;;5094659;28;19916;-62
2023/05/22 12:10:51;;;;;;;;;;;22.00;90.70;;;;;;5093347;28;19909;-62
2023/05/22 12:13:23;;;;;;;;;;;22.00;90.70;;;;;;5098632;28;19955;-62
2023/05/22 12:15:48;;;;;;;;;;;22.00;90.70;;;;;;5107900;28;20028;-62
2023/05/22 12:18:16;;;;;;;;;;;22.00;90.70;;;;;;5110906;28;20391;-63
2023/05/22 12:20:42;;;;;;;;;;;22.00;90.70;;;;;;5089874;28;19916;-68
2023/05/22 12:23:19;;;;;;;;;;;22.00;90.70;;;;;;5093689;28;19908;-62
2023/05/22 12:25:44;;;;;;;;;;;22.00;90.70;;;;;;5093065;28;20383;-64
2023/05/22 12:28:10;;;;;;;;;;;22.00;90.70;;;;;;5093641;28;19923;-65
2023/05/22 12:30:39;;;;;;;;;;;22.00;90.70;;;;;;5106860;28;20362;-63
2023/05/22 12:33:06;;;;;;;;;;;22.00;90.70;;;;;;5093143;28;20320;-63
2023/05/22 12:35:31;;;;;;;;;;;22.00;90.80;;;;;;5093218;28;20450;-63
2023/05/22 12:37:57;;;;;;;;;;;22.00;90.80;;;;;;5090558;28;20078;-63
2023/05/22 12:40:22;;;;;;;;;;;22.00;90.80;;;;;;5098408;28;20355;-63
2023/05/22 12:42:48;;;;;;;;;;;22.00;90.80;;;;;;5093230;28;19912;-68
2023/05/22 12:45:13;;;;;;;;;;;22.00;90.80;;;;;;5097751;28;19966;-65
2023/05/22 12:47:39;;;;;;;;;;;22.00;90.80;;;;;;5095694;28;20345;-69
2023/05/22 12:50:05;;;;;;;;;;;22.00;90.80;;;;;;5097146;28;19908;-71
2023/05/22 12:52:30;;;;;;;;;;;22.00;90.90;;;;;;5094933;28;19912;-68
2023/05/22 12:54:56;;;;;;;;;;;22.00;90.90;;;;;;5117153;28;19908;-65
2023/05/22 12:57:21;;;;;;;;;;;22.00;90.90;;;;;;5115996;28;19927;-67
2023/05/22 12:59:47;;;;;;;;;;;22.00;90.90;;;;;;5102171;28;20374;-68
2023/05/22 13:02:12;;;;;;;;;;;22.00;90.90;;;;;;5094641;28;19912;-63
2023/05/22 13:04:38;;;;;;;;;;;22.00;90.90;;;;;;5090593;28;19980;-65
2023/05/22 13:07:03;;;;;;;;;;;22.10;91.00;;;;;;5102124;28;19915;-65
2023/05/22 13:09:29;;;;;;;;;;;22.00;90.90;;;;;;5110589;28;19918;-63
2023/05/22 13:11:55;;;;;;;;;;;22.10;90.90;;;;;;5096156;28;20351;-64
2023/05/22 13:14:20;;;;;;;;;;;22.10;90.80;;;;;;5113545;28;19919;-63
2023/05/22 13:16:46;;;;;;;;;;;22.10;90.80;;;;;;5109640;28;19912;-63
2023/05/22 13:19:11;;;;;;;;;;;22.00;90.90;;;;;;5110186;28;20257;-64
2023/05/22 13:21:37;;;;;;;;;;;22.10;91.00;;;;;;5094233;28;20280;-64
2023/05/22 13:24:03;;;;;;;;;;;22.00;91.00;;;;;;5104824;28;19919;-65
2023/05/22 13:26:28;;;;;;;;;;;22.10;91.00;;;;;;5105745;28;20024;-65
2023/05/22 13:28:54;;;;;;;;;;;22.10;91.10;;;;;;5099498;28;20367;-71
2023/05/22 13:31:19;;;;;;;;;;;22.00;91.00;;;;;;5093953;28;19923;-65
2023/05/22 13:33:45;;;;;;;;;;;22.10;91.10;;;;;;5114036;28;19913;-70
2023/05/22 13:36:10;;;;;;;;;;;22.10;91.10;;;;;;5096681;28;20409;-69
2023/05/22 13:38:36;;;;;;;;;;;22.10;91.30;;;;;;5094829;28;19920;-69
2023/05/22 13:41:02;;;;;;;;;;;22.10;91.30;;;;;;5093611;28;19924;-63
2023/05/22 13:43:27;;;;;;;;;;;22.10;91.10;;;;;;5096059;28;19920;-67
2023/05/22 13:45:52;;;;;;;;;;;22.10;91.10;;;;;;5093465;28;20002;-64
2023/05/22 13:48:18;;;;;;;;;;;22.10;91.00;;;;;;5116060;28;20483;-63
2023/05/22 13:50:44;;;;;;;;;;;22.10;91.10;;;;;;5109435;28;19916;-63
2023/05/22 13:53:09;;;;;;;;;;;22.10;91.10;;;;;;5094842;28;19912;-65
2023/05/22 13:55:35;;;;;;;;;;;22.10;91.10;;;;;;5103389;28;20425;-63
2023/05/22 13:58:00;;;;;;;;;;;22.10;91.10;;;;;;5097727;28;19916;-61
2023/05/22 14:00:26;;;;;;;;;;;22.10;91.10;;;;;;5095386;28;19998;-69
2023/05/22 14:02:51;;;;;;;;;;;22.10;91.10;;;;;;5109922;28;19911;-65
2023/05/22 14:05:17;;;;;;;;;;;22.10;91.10;;;;;;5101155;28;19932;-65
2023/05/22 14:07:42;;;;;;;;;;;22.10;91.10;;;;;;5092798;28;19912;-63
2023/05/22 14:10:08;;;;;;;;;;;22.10;91.10;;;;;;5113685;28;19919;-66
2023/05/22 14:12:33;;;;;;;;;;;22.10;91.10;;;;;;5105805;28;19916;-64